Latest Coastal Weather Observations for Ceduna

IDS60701

Issued at 12:41 pm CST Monday 21 May 2018 (issued every 10 minutes, with the page automatically refreshed every 10 minutes)

About coastal observations | Map of coastal stations | Coastal observations for SA | Marine services | Other Formats
Station Details ID: 018012 Name: CEDUNA AMO Lat: -32.13 Lon: 133.70 Height: 15.3 m
Data from the previous 72 hours. | See also: Recent months at Ceduna
Date/Time
CST
Temp
°C
Wind Pressure Rain since
9am
mm
Weather Cloud Vis
km
Sea
Height
m
Swell
Dir  Spd
kts
Gust
kts
hPa Trend Height
m
Period
s
Dir
21/12:30pm 17.3 SW 10 13 1032.8 - 0.0 - Partly cloudy 10 - - - -
21/12:00pm 17.5 SW 5 9 1033.4 R 0.0 - Mostly clear 10 - - - -
21/11:30am 17.4 SSE 6 10 1033.7 - 0.0 - Partly cloudy 10 - - - -
21/11:00am 17.3 E 5 11 1033.8 - 0.0 - - 10 - - - -
21/10:30am 17.0 ENE 7 9 1033.8 - 0.0 - - 10 - - - -
21/10:00am 16.1 ENE 7 10 1033.8 - 0.0 - - 10 - - - -
21/09:30am 14.3 NE 7 9 1033.6 - 0.0 - - 10 - - - -
21/09:00am 11.9 NE 6 7 1033.5 R 0.2 - - 10 - - - -
21/08:30am 8.9 NE 5 8 1033.1 - 0.2 - - 10 - - - -
21/08:00am 5.3 NE 3 4 1032.8 - 0.2 - - 10 - - - -
21/07:30am 4.0 NE 4 5 1032.5 - 0.2 - - 10 - - - -
21/07:18am 3.4 NE 5 5 1032.4 - 0.2 - - 10 - - - -
21/07:00am 3.2 NE 3 4 1032.4 - 0.2 - - 2 - - - -
21/06:30am 2.5 NE 4 4 1032.2 - 0.2 - - 4 - - - -
21/06:00am 2.0 NE 1 3 1031.7 R 0.2 - - 2 - - - -
21/05:42am 2.9 NE 3 3 1031.6 - 0.2 - - 5 - - - -
21/05:30am 3.5 NE 3 4 1031.6 - 0.2 - - 10 - - - -
21/05:17am 3.8 NE 2 4 1031.6 - 0.2 - - 6 - - - -
21/05:00am 3.7 CALM 0 0 1031.5 - 0.2 - - 4 - - - -
21/04:58am 4.0 CALM 0 0 1031.4 - 0.2 - - 5 - - - -
21/04:30am 4.5 CALM 0 0 1031.3 - 0.2 - - 10 - - - -
21/04:07am 5.0 CALM 0 0 1031.1 - 0.2 - - 10 - - - -
21/04:00am 4.7 CALM 0 0 1031.1 - 0.2 - - 10 - - - -
21/03:45am 3.7 CALM 0 0 1031.1 - 0.2 - - 5 - - - -
21/03:30am 4.6 NE 1 3 1031.0 - 0.2 - - 10 - - - -
21/03:00am 4.9 NE 4 5 1030.9 R 0.2 - - 10 - - - -
21/02:30am 4.3 NE 3 4 1030.9 - 0.2 - - 10 - - - -
21/02:00am 3.8 NE 4 5 1030.9 - 0.2 - - 10 - - - -
21/01:30am 4.2 NE 3 4 1030.9 - 0.2 - - 10 - - - -
21/01:00am 4.9 ENE 1 5 1030.9 - 0.2 - - 10 - - - -
21/12:30am 4.9 ENE 1 3 1031.1 - 0.2 - - 10 - - - -
21/12:00am 5.4 ENE 3 4 1031.1 S 0.2 - - 10 - - - -
 
Date/Time
CST
Temp
°C
Wind Pressure Rain since
9am
mm
Weather Cloud Vis
km
Sea
Height
m
Swell
Dir  Spd
kts
Gust
kts
hPa Trend Height
m
Period
s
Dir
20/11:30pm 6.1 ENE 5 5 1031.4 - 0.2 - - 10 - - - -
20/11:00pm 6.8 ENE 5 6 1031.7 - 0.2 - - 10 - - - -
20/10:30pm 8.1 E 4 5 1031.7 - 0.2 - - 10 - - - -
20/10:00pm 9.3 ESE 4 5 1031.6 - 0.2 - - 10 - - - -
20/09:30pm 9.5 ESE 6 7 1031.4 - 0.2 - - 10 - - - -
20/09:00pm 11.6 SE 7 8 1031.4 R 0.2 - - 10 - - - -
20/08:30pm 13.1 SSE 8 10 1031.3 - 0.2 - - 10 - - - -
20/08:00pm 13.8 SSE 8 9 1031.3 - 0.2 - - 10 - - - -
20/07:30pm 14.6 SSE 11 13 1031.1 - 0.2 - - 10 - - - -
20/07:00pm 14.5 S 9 11 1030.6 - 0.2 - - 10 - - - -
20/06:30pm 14.0 S 8 10 1030.2 - 0.2 - - 10 - - - -
20/06:00pm 14.4 S 8 10 1029.8 R 0.2 - - 10 - - - -
20/05:30pm 15.5 S 11 14 1029.7 - 0.2 - - 10 - - - -
20/05:00pm 16.6 S 11 14 1029.5 - 0.2 - - 10 - - - -
20/04:30pm 17.4 S 12 16 1029.4 - 0.2 - - 10 - - - -
20/04:00pm 17.6 SSW 11 14 1029.2 - 0.2 - - 10 - - - -
20/03:30pm 17.8 SSW 12 14 1029.1 - 0.2 - - 10 - - - -
20/03:00pm 18.3 SSW 10 12 1028.8 S 0.2 - - 10 - - - -
20/02:30pm 17.9 S 8 12 1028.8 - 0.2 - - 10 - - - -
20/02:00pm 17.4 S 7 10 1029.0 - 0.2 - - 10 - - - -
20/01:30pm 18.2 S 8 12 1029.5 - 0.2 - Partly cloudy 10 - - - -
20/01:00pm 17.4 SSE 7 11 1029.8 - 0.2 - Partly cloudy 10 - - - -
20/12:30pm 17.7 SE 7 11 1030.2 - 0.2 - - 10 - - - -
20/12:00pm 17.7 SE 7 11 1030.6 R 0.0 - - 10 - - - -
20/11:30am 16.9 ESE 7 9 1031.0 - 0.0 - - 10 - - - -
20/11:00am 16.0 E 8 9 1031.1 - 0.0 - - 10 - - - -
20/10:30am 14.5 ESE 6 8 1031.2 - 0.0 - - 10 - - - -
20/10:00am 13.8 E 9 11 1031.1 - 0.0 - - 10 - - - -
20/09:30am 12.5 E 8 10 1031.0 - 0.0 - - 10 - - - -
20/09:00am 10.0 E 8 10 1030.9 R 0.6 - - 10 - - - -
20/08:30am 7.1 ENE 4 5 1030.6 - 0.6 - - 10 - - - -
20/08:12am 6.0 CALM 0 0 1030.4 - 0.6 - Partly cloudy 10 - - - -
20/08:00am 5.3 E 1 4 1030.2 - 0.6 - Partly cloudy 4 - - - -
20/07:30am 4.7 ENE 4 4 1029.6 - 0.6 - - 2 - - - -
20/07:17am 5.3 ENE 6 7 1029.5 - 0.6 - - 5 - - - -
20/07:00am 5.6 ENE 6 8 1029.3 - 0.6 - - 10 - - - -
20/06:30am 6.0 E 5 6 1029.2 - 0.6 - - 10 - - - -
20/06:00am 7.5 E 6 7 1029.1 R 0.6 - - 10 - - - -
20/05:33am 6.9 E 5 7 1028.9 - 0.6 - - 10 - - - -
20/05:30am 6.8 E 4 7 1028.9 - 0.6 - - 10 - - - -
20/05:00am 4.9 E 4 5 1028.9 - 0.6 - - 8 - - - -
20/04:42am 6.8 E 5 5 1028.8 - 0.6 - - 5 - - - -
20/04:41am 6.7 E 5 5 1028.8 - 0.6 - - 6 - - - -
20/04:30am 6.9 ESE 5 6 1028.7 - 0.6 - - 2 - - - -
20/04:00am 5.9 ESE 2 3 1028.5 - 0.6 - - 0.3 - - - -
20/03:36am 6.0 CALM 0 0 1028.4 - 0.6 - - 0.3 - - - -
20/03:30am 6.2 CALM 0 0 1028.4 - 0.6 - - - - - - -
20/03:00am 7.3 CALM 0 0 1028.4 R 0.6 - - 0.5 - - - -
20/02:30am 7.6 ESE 1 3 1028.3 - 0.6 - - 1 - - - -
20/02:24am 7.2 ESE 2 4 1028.4 - 0.6 - - 5 - - - -
20/02:10am 8.3 SE 3 4 1028.2 - 0.6 - - 10 - - - -
20/02:00am 8.7 CALM 0 3 1028.2 - 0.6 - - 5 - - - -
20/01:45am 9.9 CALM 0 0 1028.1 - 0.6 - - 5 - - - -
20/01:30am 9.1 CALM 0 0 1028.2 - 0.6 - - 10 - - - -
20/01:00am 8.9 SE 4 5 1028.1 - 0.6 - - 10 - - - -
20/12:30am 10.0 SE 5 5 1028.2 - 0.6 - - 10 - - - -
20/12:00am 12.2 SE 4 5 1028.3 R 0.6 - Mostly cloudy 10 - - - -
 
Date/Time
CST
Temp
°C
Wind Pressure Rain since
9am
mm
Weather Cloud Vis
km
Sea
Height
m
Swell
Dir  Spd
kts
Gust
kts
hPa Trend Height
m
Period
s
Dir
19/11:30pm 12.6 ESE 4 5 1028.4 - 0.6 - Cloudy 10 - - - -
19/11:00pm 12.4 ESE 2 4 1028.5 - 0.6 - Cloudy 10 - - - -
19/10:30pm 12.4 ESE 4 5 1028.4 - 0.6 - Cloudy 10 - - - -
19/10:00pm 12.4 ESE 4 5 1028.4 - 0.6 - Cloudy 10 - - - -
19/09:30pm 11.8 SE 4 4 1028.5 - 0.6 - Partly cloudy 10 - - - -
19/09:00pm 11.9 SE 5 6 1028.4 F 0.6 - Cloudy 10 - - - -
19/08:30pm 11.5 SE 5 6 1028.4 - 0.6 - Partly cloudy 10 - - - -
19/08:00pm 12.6 SSE 4 5 1028.4 - 0.6 - Partly cloudy 10 - - - -
19/07:30pm 13.0 S 5 7 1028.3 - 0.6 - Partly cloudy 10 - - - -
19/07:00pm 11.8 SW 3 4 1028.1 - 0.6 - - 10 - - - -
19/06:30pm 12.8 SW 4 5 1027.9 - 0.6 - - 10 - - - -
19/06:00pm 14.4 SW 3 3 1027.9 F 0.6 - Partly cloudy 10 - - - -
19/05:30pm 14.9 SW 4 4 1027.8 - 0.6 - Partly cloudy 10 - - - -
19/05:00pm 16.0 SW 5 6 1027.7 - 0.6 - - 10 - - - -
19/04:30pm 16.6 SSW 7 8 1027.6 - 0.6 - Partly cloudy 10 - - - -
19/04:00pm 17.2 SSW 7 10 1027.5 - 0.6 - Cloudy 10 - - - -
19/03:30pm 17.3 SSW 6 8 1027.5 - 0.6 - Cloudy 10 - - - -
19/03:00pm 16.8 SSW 10 13 1027.5 R 0.6 - Cloudy 10 - - - -
19/02:30pm 17.6 SSW 8 12 1027.5 - 0.6 - Partly cloudy 10 - - - -
19/02:00pm 17.8 SSW 7 9 1027.7 - 0.6 - Partly cloudy 10 - - - -
19/01:30pm 17.6 S 3 7 1027.9 - 0.6 - Partly cloudy 10 - - - -
19/01:00pm 17.4 NE 6 8 1028.1 - 0.6 - Partly cloudy 10 - - - -
19/12:30pm 16.0 NNW 3 5 1028.7 - 0.6 - Cloudy 10 - - - -
19/12:00pm 15.5 NW 5 7 1029.1 R 0.6 - Cloudy 10 - - - -
19/11:30am 14.6 SW 4 6 1029.5 - 0.6 - Partly cloudy 10 - - - -
19/11:13am 14.5 SSW 4 6 1029.7 - 0.6 - Partly cloudy 10 - - - -
19/11:00am 14.3 SW 6 8 1029.8 - 0.6 - Partly cloudy 5 - - - -
19/10:59am 14.4 SW 5 8 1029.8 - 0.6 - Partly cloudy 5 - - - -
19/10:37am 14.1 W 6 8 1029.8 - 0.6 - Partly cloudy 10 - - - -
19/10:30am 14.0 W 7 9 1029.8 - 0.6 - Partly cloudy 7 - - - -
19/10:00am 14.0 W 7 9 1029.9 - 0.4 - Partly cloudy 5 - - - -
19/09:54am 13.8 W 7 8 1029.9 - 0.4 - Partly cloudy 5 - - - -
19/09:52am 13.9 W 7 8 1029.9 - 0.2 - Partly cloudy 6 - - - -
19/09:43am 13.9 WNW 5 7 1029.8 - 0.2 - Partly cloudy 6 - - - -
19/09:33am 13.5 WNW 4 5 1029.8 - 0.2 - Partly cloudy 4 - - - -
19/09:30am 13.3 WNW 4 5 1029.9 - 0.2 - Partly cloudy 5 - - - -
19/09:29am 13.3 WNW 4 5 1029.9 - 0.2 - Partly cloudy 5 - - - -
19/09:00am 12.7 NNW 5 5 1029.5 F 0.2 - Cloudy 10 - - - -
19/08:30am 12.1 N 3 4 1029.5 - 0.2 - Partly cloudy 10 - - - -
19/08:00am 11.0 NNW 5 6 1029.3 - 0.2 - Partly cloudy 10 - - - -
19/07:30am 10.3 N 6 7 1029.0 - 0.2 - Partly cloudy 10 - - - -
19/07:00am 10.4 NNW 5 6 1028.9 - 0.2 - Partly cloudy 10 - - - -
19/06:30am 10.4 N 5 6 1028.7 - 0.2 - Partly cloudy 10 - - - -
19/06:00am 10.4 S 3 8 1028.7 F 0.0 - Mostly cloudy 10 - - - -
19/05:30am 9.8 N 5 6 1028.5 - 0.0 - Partly cloudy 10 - - - -
19/05:22am 9.8 N 5 6 1028.4 - 0.0 - Partly cloudy 10 - - - -
19/05:00am 8.7 N 6 7 1028.4 - 0.0 - Partly cloudy 4 - - - -
19/04:30am 8.8 NNW 5 6 1028.4 - 0.0 - Partly cloudy 0.3 - - - -
19/04:00am 8.4 N 4 5 1028.4 - 0.0 - - 0.3 - - - -
19/03:30am 10.0 N 4 4 1028.4 - 0.0 - - 0.3 - - - -
19/03:03am 10.1 N 3 4 1028.5 - 0.0 - Partly cloudy 5 - - - -
19/03:00am 10.4 N 3 4 1028.5 R 0.0 - Mostly clear 10 - - - -
19/02:30am 10.8 N 6 6 1028.5 - 0.0 - Partly cloudy 10 - - - -
19/02:00am 10.8 NNW 6 6 1028.4 - 0.0 - Cloudy 10 - - - -
19/01:30am 11.7 NW 3 4 1028.4 - 0.0 - Partly cloudy 10 - - - -
19/01:00am 11.3 CALM 0 0 1028.5 - 0.0 - Partly cloudy 10 - - - -
19/12:30am 11.4 CALM 0 0 1028.7 - 0.0 - Cloudy 10 - - - -
19/12:00am 12.3 CALM 0 0 1028.9 F 0.0 - Mostly cloudy 10 - - - -
 
Date/Time
CST
Temp
°C
Wind Pressure Rain since
9am
mm
Weather Cloud Vis
km
Sea
Height
m
Swell
Dir  Spd
kts
Gust
kts
hPa Trend Height
m
Period
s
Dir
18/11:30pm 13.3 W 1 3 1029.0 - 0.0 - Partly cloudy 10 - - - -
18/11:00pm 12.7 SSW 3 5 1029.2 - 0.0 - Partly cloudy 10 - - - -
18/10:30pm 12.7 SE 3 5 1029.4 - 0.0 - Partly cloudy 10 - - - -
18/10:00pm 11.3 CALM 0 0 1029.4 - 0.0 - Partly cloudy 10 - - - -
18/09:30pm 12.3 SW 1 2 1029.5 - 0.0 - Partly cloudy 10 - - - -
18/09:00pm 12.2 SW 2 3 1029.5 F 0.0 - Partly cloudy 10 - - - -
18/08:30pm 13.8 SW 3 3 1029.7 - 0.0 - Partly cloudy 10 - - - -
18/08:00pm 14.2 SW 4 5 1029.6 - 0.0 - Partly cloudy 10 - - - -
18/07:30pm 14.6 SW 5 6 1029.7 - 0.0 - Partly cloudy 10 - - - -
18/07:00pm 14.7 SW 5 7 1029.5 - 0.0 - Partly cloudy 10 - - - -
18/06:30pm 15.3 SSW 6 7 1029.5 - 0.0 - Partly cloudy 10 - - - -
18/06:00pm 15.6 SSW 8 10 1029.5 F 0.0 - Cloudy 10 - - - -
18/05:30pm 15.7 S 7 10 1029.4 - 0.0 - Cloudy 10 - - - -
18/05:00pm 15.9 S 9 11 1029.4 - 0.0 - Partly cloudy 10 - - - -
18/04:30pm 16.1 WSW 9 11 1029.4 - 0.0 - Partly cloudy 10 - - - -
18/04:00pm 16.2 WSW 10 12 1029.5 - 0.0 - Partly cloudy 10 - - - -
18/03:30pm 16.4 WSW 8 10 1029.6 - 0.0 - Cloudy 10 - - - -
18/03:00pm 16.2 WSW 8 10 1029.9 F 0.0 - Cloudy 10 - - - -
18/02:30pm 16.2 WSW 9 11 1030.2 - 0.0 - Cloudy 10 - - - -
18/02:00pm 16.3 WSW 8 10 1030.5 - 0.0 - Cloudy 10 - - - -
18/01:30pm 16.2 W 8 10 1030.9 - 0.0 - Cloudy 10 - - - -
18/01:00pm 16.2 W 8 10 1031.2 - 0.0 - Cloudy 10 - - - -

Other Formats:

Comma delimited format used in spreadsheet applications
http://www.bom.gov.au/fwo/IDS60701/IDS60701.94653.axf

JavaScript Object Notation format (JSON) in row-major order
http://www.bom.gov.au/fwo/IDS60701/IDS60701.94653.json